Time;durP1;ratioP1;P1;durP2;ratioP2;P2;SDS_P1;SDS_P2;PMS_P1;PMS_P2;Temp;Humidity;BMP_temperature;BMP_pressure;BME280_temperature;BME280_humidity;BME280_pressure;Samples;Min_cycle;Max_cycle;Signal;HPM_P1;HPM_P2
2024/01/04 00:01:49;;;;;;;2.87;1.27;;;9.70;99.90;;;;;;5055642;28;20262;-70
2024/01/04 00:04:14;;;;;;;3.20;1.17;;;9.60;99.90;;;;;;5054656;28;20174;-69
2024/01/04 00:06:46;;;;;;;4.60;1.03;;;9.50;99.90;;;;;;5055364;28;20217;-70
2024/01/04 00:09:12;;;;;;;2.60;0.70;;;9.40;99.90;;;;;;5054900;28;20184;-69
2024/01/04 00:11:37;;;;;;;1.77;0.90;;;9.40;99.90;;;;;;5054902;28;20532;-68
2024/01/04 00:14:05;;;;;;;2.33;0.80;;;9.30;99.90;;;;;;5055335;28;20224;-69
2024/01/04 00:16:33;;;;;;;2.00;1.00;;;9.30;99.90;;;;;;5055161;28;20165;-69
2024/01/04 00:18:58;;;;;;;4.43;1.60;;;9.40;99.90;;;;;;5060074;28;20410;-69
2024/01/04 00:21:24;;;;;;;3.07;1.10;;;9.40;99.90;;;;;;5055321;28;20409;-70
2024/01/04 00:23:49;;;;;;;2.90;1.00;;;9.40;99.90;;;;;;5054752;28;20224;-69
2024/01/04 00:26:15;;;;;;;2.00;1.07;;;9.40;99.90;;;;;;5055168;28;20544;-69
2024/01/04 00:28:40;;;;;;;1.70;0.90;;;9.40;99.90;;;;;;5054514;28;20180;-69
2024/01/04 00:31:06;;;;;;;3.93;0.90;;;9.50;99.90;;;;;;5054244;28;20248;-70
2024/01/04 00:33:31;;;;;;;3.30;0.90;;;9.50;99.90;;;;;;5054759;28;20188;-69
2024/01/04 00:35:57;;;;;;;5.73;1.30;;;9.50;99.90;;;;;;5054869;28;20179;-69
2024/01/04 00:38:23;;;;;;;5.40;1.20;;;9.40;99.90;;;;;;5054349;28;20228;-69
2024/01/04 00:40:48;;;;;;;5.37;1.77;;;9.50;99.90;;;;;;5053648;28;20230;-69
2024/01/04 00:43:14;;;;;;;3.70;1.37;;;9.50;99.90;;;;;;5054821;28;20193;-69
2024/01/04 00:45:40;;;;;;;3.27;1.10;;;9.30;99.90;;;;;;5054589;28;20180;-69
2024/01/04 00:48:06;;;;;;;3.93;1.20;;;9.30;99.90;;;;;;5054524;28;20178;-69
2024/01/04 00:50:31;;;;;;;3.33;1.20;;;9.40;99.90;;;;;;5054800;28;20277;-69
2024/01/04 00:52:57;;;;;;;5.20;1.20;;;9.50;99.90;;;;;;5054562;28;20962;-69
2024/01/04 00:55:23;;;;;;;4.50;1.17;;;9.30;99.90;;;;;;5053081;28;20266;-69
2024/01/04 00:57:48;;;;;;;1.70;0.97;;;9.20;99.90;;;;;;5054277;28;20496;-69
2024/01/04 01:00:14;;;;;;;2.60;1.03;;;9.20;99.90;;;;;;5050141;28;20185;-69
2024/01/04 01:02:40;;;;;;;3.00;1.63;;;9.10;99.90;;;;;;5048793;28;20212;-69
2024/01/04 01:05:06;;;;;;;4.90;1.10;;;9.30;99.90;;;;;;5054368;28;20463;-69
2024/01/04 01:07:31;;;;;;;2.67;1.13;;;9.20;99.90;;;;;;5054251;28;20204;-69
2024/01/04 01:09:57;;;;;;;3.10;1.27;;;9.20;99.90;;;;;;5054073;28;21097;-69
2024/01/04 01:12:23;;;;;;;6.03;1.60;;;9.30;99.90;;;;;;5054077;28;20219;-70
2024/01/04 01:14:48;;;;;;;2.10;1.07;;;9.20;99.90;;;;;;5053922;28;20176;-69
2024/01/04 01:17:14;;;;;;;3.60;1.53;;;9.20;99.90;;;;;;5053788;28;20178;-69
2024/01/04 01:19:39;;;;;;;3.87;1.23;;;9.10;99.90;;;;;;5054025;28;20176;-69
2024/01/04 01:22:05;;;;;;;4.13;1.20;;;9.10;99.90;;;;;;5054175;28;20196;-69
2024/01/04 01:24:31;;;;;;;4.73;1.00;;;9.10;99.90;;;;;;5053532;28;20177;-69
2024/01/04 01:26:56;;;;;;;7.87;2.00;;;9.10;99.90;;;;;;5054080;28;20170;-69
2024/01/04 01:29:22;;;;;;;4.57;1.60;;;9.20;99.90;;;;;;5053725;28;20180;-69
2024/01/04 01:31:47;;;;;;;2.83;1.33;;;9.30;99.90;;;;;;5053747;28;20209;-69
2024/01/04 01:34:13;;;;;;;7.57;1.73;;;9.40;99.90;;;;;;5054656;28;20172;-69
2024/01/04 01:36:42;;;;;;;4.77;1.87;;;9.40;99.90;;;;;;5051674;28;20222;-70
2024/01/04 01:39:08;;;;;;;1.73;0.83;;;9.40;99.90;;;;;;5053473;28;20180;-70
2024/01/04 01:41:34;;;;;;;1.80;1.30;;;9.40;99.90;;;;;;5053577;28;20469;-70
2024/01/04 01:43:59;;;;;;;3.23;1.20;;;9.20;99.90;;;;;;5053964;28;20414;-70
2024/01/04 01:46:25;;;;;;;3.13;0.90;;;9.10;99.90;;;;;;5053411;28;20610;-70
2024/01/04 01:48:50;;;;;;;4.90;1.30;;;9.10;99.90;;;;;;5053383;28;20182;-70
2024/01/04 01:51:16;;;;;;;2.30;1.07;;;9.10;99.90;;;;;;5053430;28;20274;-70
2024/01/04 01:53:42;;;;;;;2.10;0.80;;;9.20;99.90;;;;;;5052974;28;20187;-70
2024/01/04 01:56:08;;;;;;;3.50;1.90;;;9.10;99.90;;;;;;5053334;28;20179;-68
2024/01/04 01:58:35;;;;;;;2.70;0.80;;;8.90;99.90;;;;;;5053057;28;20411;-68
2024/01/04 02:01:01;;;;;;;1.10;0.70;;;8.90;99.90;;;;;;5052918;28;20751;-68
2024/01/04 02:03:26;;;;;;;2.80;0.90;;;8.70;99.90;;;;;;5036420;28;20459;-69
2024/01/04 02:05:52;;;;;;;1.43;0.87;;;8.40;99.90;;;;;;5052858;28;20843;-69
2024/01/04 02:08:17;;;;;;;1.40;0.70;;;8.40;99.90;;;;;;5053060;28;20645;-69
2024/01/04 02:10:43;;;;;;;2.00;0.80;;;8.30;99.90;;;;;;5052784;28;20198;-69
2024/01/04 02:13:10;;;;;;;2.67;0.77;;;8.30;99.90;;;;;;5052987;28;20193;-68
2024/01/04 02:15:35;;;;;;;1.10;0.50;;;8.30;99.90;;;;;;5038653;28;20170;-69
2024/01/04 02:18:01;;;;;;;1.90;0.80;;;8.30;99.90;;;;;;5053041;28;20405;-69
2024/01/04 02:20:27;;;;;;;1.70;0.60;;;8.20;99.90;;;;;;5052937;28;20177;-69
2024/01/04 02:22:52;;;;;;;1.73;0.80;;;8.20;99.90;;;;;;5053440;28;20665;-69
2024/01/04 02:25:18;;;;;;;1.77;0.60;;;8.10;99.90;;;;;;5052635;28;20250;-69
2024/01/04 02:27:44;;;;;;;2.03;0.50;;;8.10;99.90;;;;;;5052965;28;20183;-69
2024/01/04 02:30:12;;;;;;;0.70;0.50;;;8.10;99.90;;;;;;5052365;28;20790;-69
2024/01/04 02:32:38;;;;;;;1.23;0.50;;;8.10;99.90;;;;;;5051979;28;20195;-70
2024/01/04 02:35:04;;;;;;;1.00;0.50;;;8.20;99.90;;;;;;5052758;28;20771;-69
2024/01/04 02:37:30;;;;;;;2.83;0.40;;;8.20;99.90;;;;;;5053811;28;20162;-70
2024/01/04 02:39:56;;;;;;;1.43;0.40;;;8.20;99.90;;;;;;5054634;28;20413;-70
2024/01/04 02:42:21;;;;;;;1.83;0.70;;;8.20;99.90;;;;;;5052787;28;20208;-70
2024/01/04 02:44:47;;;;;;;0.80;0.50;;;8.10;99.90;;;;;;5053213;28;20176;-70
2024/01/04 02:47:12;;;;;;;1.73;0.60;;;8.10;99.90;;;;;;5052717;28;20183;-70
2024/01/04 02:49:38;;;;;;;0.90;0.50;;;8.20;99.90;;;;;;5052485;28;20181;-70
2024/01/04 02:52:04;;;;;;;1.27;0.47;;;8.20;99.90;;;;;;5052561;28;20216;-70
2024/01/04 02:54:30;;;;;;;1.13;0.40;;;8.20;99.90;;;;;;5052576;28;20405;-69
2024/01/04 02:56:55;;;;;;;1.47;0.50;;;8.30;99.90;;;;;;5052420;28;20434;-69
2024/01/04 02:59:21;;;;;;;0.80;0.60;;;8.30;99.90;;;;;;5052336;28;20184;-69
2024/01/04 03:01:48;;;;;;;1.33;0.50;;;8.20;99.90;;;;;;5052222;28;20268;-69
2024/01/04 03:04:15;;;;;;;1.40;0.50;;;8.20;99.90;;;;;;5083837;22;20602;-69
2024/01/04 03:06:40;;;;;;;1.37;0.70;;;8.20;99.90;;;;;;5072733;28;20446;-71
2024/01/04 03:09:06;;;;;;;0.70;0.50;;;8.10;99.90;;;;;;5063980;28;20444;-70
2024/01/04 03:11:32;;;;;;;0.80;0.50;;;8.20;99.90;;;;;;5052740;28;20567;-70
2024/01/04 03:13:57;;;;;;;0.97;0.43;;;8.20;99.90;;;;;;5053507;28;20568;-70
2024/01/04 03:16:23;;;;;;;1.40;0.50;;;8.30;99.90;;;;;;5054547;28;20178;-70
2024/01/04 03:18:49;;;;;;;1.77;0.50;;;8.30;99.90;;;;;;5060927;28;20179;-71
2024/01/04 03:21:15;;;;;;;0.80;0.40;;;8.40;99.90;;;;;;5063781;28;20178;-70
2024/01/04 03:23:40;;;;;;;0.93;0.43;;;8.40;99.90;;;;;;5057243;28;20195;-70
2024/01/04 03:26:06;;;;;;;0.60;0.40;;;8.40;99.90;;;;;;5060953;28;21047;-70
2024/01/04 03:28:31;;;;;;;1.37;0.60;;;8.40;99.90;;;;;;5068442;28;20202;-70
2024/01/04 03:30:57;;;;;;;1.73;0.50;;;8.30;99.90;;;;;;5052495;28;20599;-70
2024/01/04 03:33:23;;;;;;;1.00;0.43;;;8.30;99.90;;;;;;5058160;28;20230;-69
2024/01/04 03:35:49;;;;;;;0.67;0.40;;;8.30;99.90;;;;;;5065282;28;20178;-69
2024/01/04 03:38:17;;;;;;;1.23;0.50;;;8.30;99.90;;;;;;5057622;28;20170;-70
2024/01/04 03:40:43;;;;;;;1.40;0.50;;;8.30;99.90;;;;;;5076084;28;20767;-70
2024/01/04 03:43:08;;;;;;;0.93;0.47;;;8.20;99.90;;;;;;5072827;28;20431;-70
2024/01/04 03:45:34;;;;;;;1.30;0.50;;;8.30;99.90;;;;;;5056940;28;20177;-69
2024/01/04 03:48:03;;;;;;;1.10;0.63;;;8.40;99.90;;;;;;5056168;28;20176;-70
2024/01/04 03:50:28;;;;;;;0.90;0.50;;;8.30;99.90;;;;;;5071366;28;20798;-70
2024/01/04 03:52:54;;;;;;;1.10;0.60;;;8.30;99.90;;;;;;5074053;28;20511;-69
2024/01/04 03:55:20;;;;;;;1.43;1.10;;;8.20;99.90;;;;;;5055883;28;20232;-70
2024/01/04 03:57:46;;;;;;;2.13;0.67;;;8.40;99.90;;;;;;5073311;28;20174;-70
2024/01/04 04:00:12;;;;;;;2.47;0.60;;;8.40;99.90;;;;;;5070223;28;20185;-71
2024/01/04 04:02:38;;;;;;;1.10;0.50;;;8.40;99.90;;;;;;5075065;28;20494;-70
2024/01/04 04:05:04;;;;;;;0.97;0.60;;;8.40;99.90;;;;;;5053901;28;20986;-71
2024/01/04 04:07:30;;;;;;;1.37;0.70;;;8.50;99.90;;;;;;5055882;28;20416;-70
2024/01/04 04:09:56;;;;;;;1.30;0.70;;;8.50;99.90;;;;;;5069777;28;20921;-69
2024/01/04 04:12:22;;;;;;;2.30;0.70;;;8.60;99.90;;;;;;5075119;28;20196;-70
2024/01/04 04:14:49;;;;;;;1.67;0.97;;;8.80;99.90;;;;;;5060271;28;20424;-70
2024/01/04 04:17:18;;;;;;;1.03;0.60;;;9.00;99.90;;;;;;5054133;28;20423;-70
2024/01/04 04:19:43;;;;;;;1.63;0.60;;;9.00;99.90;;;;;;5067804;28;20505;-69
2024/01/04 04:22:09;;;;;;;2.90;0.93;;;8.90;99.90;;;;;;5073989;28;20417;-71
2024/01/04 04:24:35;;;;;;;1.63;0.60;;;8.80;99.90;;;;;;5057384;28;20244;-69
2024/01/04 04:27:01;;;;;;;2.77;0.90;;;8.90;99.90;;;;;;5062752;28;20646;-70
2024/01/04 04:29:27;;;;;;;2.03;1.00;;;9.00;99.90;;;;;;5065138;28;20188;-71
2024/01/04 04:31:53;;;;;;;1.43;0.63;;;9.20;99.90;;;;;;5075261;28;20190;-69
2024/01/04 04:34:19;;;;;;;3.10;0.80;;;9.30;99.90;;;;;;5044638;28;20439;-69
2024/01/04 04:36:45;;;;;;;1.57;0.70;;;9.10;99.90;;;;;;5056471;28;20418;-71
2024/01/04 04:39:10;;;;;;;2.83;1.10;;;9.10;99.90;;;;;;5067549;28;20255;-69
2024/01/04 04:41:37;;;;;;;1.27;0.80;;;9.20;99.90;;;;;;5055523;28;20886;-70
2024/01/04 04:44:03;;;;;;;2.63;0.90;;;9.20;99.90;;;;;;5062682;28;20572;-69
2024/01/04 04:46:29;;;;;;;4.47;1.20;;;9.10;99.90;;;;;;5055033;28;20456;-71
2024/01/04 04:48:56;;;;;;;1.47;0.70;;;9.30;99.90;;;;;;5056751;28;20199;-68
2024/01/04 04:51:25;;;;;;;3.17;0.90;;;9.30;99.90;;;;;;5054978;28;20541;-70
2024/01/04 04:53:53;;;;;;;2.10;0.90;;;9.30;99.90;;;;;;5061883;28;20463;-70
2024/01/04 04:56:19;;;;;;;3.00;0.80;;;9.20;99.90;;;;;;5055437;28;20403;-69
2024/01/04 04:58:45;;;;;;;3.23;0.70;;;9.30;99.90;;;;;;5040008;28;20989;-70
2024/01/04 05:01:11;;;;;;;2.53;1.07;;;9.40;99.90;;;;;;5071762;28;20202;-70
2024/01/04 05:03:37;;;;;;;4.20;1.40;;;9.60;99.90;;;;;;5068120;28;20719;-70
2024/01/04 05:06:03;;;;;;;2.40;0.93;;;9.50;99.90;;;;;;5054693;28;20418;-69
2024/01/04 05:08:29;;;;;;;2.60;0.80;;;9.60;99.90;;;;;;5059644;28;20195;-71
2024/01/04 05:10:55;;;;;;;3.10;0.97;;;9.40;99.90;;;;;;5067762;28;20445;-69
2024/01/04 05:13:20;;;;;;;2.83;1.03;;;9.40;99.90;;;;;;5071570;28;20262;-70
2024/01/04 05:15:46;;;;;;;3.40;0.97;;;9.30;99.90;;;;;;5065458;28;20180;-70
2024/01/04 05:18:12;;;;;;;2.90;0.90;;;9.20;99.90;;;;;;5054630;28;20226;-70
2024/01/04 05:20:37;;;;;;;2.20;1.10;;;9.10;99.90;;;;;;5068958;28;20180;-70
2024/01/04 05:23:03;;;;;;;4.07;1.03;;;9.10;99.90;;;;;;5054689;28;20205;-70
2024/01/04 05:25:29;;;;;;;5.40;1.30;;;9.10;99.90;;;;;;5065141;28;20174;-70
2024/01/04 05:27:54;;;;;;;3.57;0.90;;;9.00;99.90;;;;;;5073896;28;20178;-70
2024/01/04 05:30:20;;;;;;;1.33;0.80;;;8.90;99.90;;;;;;5060825;28;20658;-70
2024/01/04 05:32:46;;;;;;;1.47;0.80;;;8.80;99.90;;;;;;5072562;28;20190;-69
2024/01/04 05:35:12;;;;;;;3.87;1.20;;;8.80;99.90;;;;;;5055186;28;20198;-69
2024/01/04 05:37:38;;;;;;;2.53;0.90;;;8.70;99.90;;;;;;5054206;28;20587;-70
2024/01/04 05:40:04;;;;;;;2.20;0.93;;;8.80;99.90;;;;;;5069677;28;20404;-71
2024/01/04 05:42:30;;;;;;;4.10;0.93;;;8.90;99.90;;;;;;5057553;28;20948;-69
2024/01/04 05:44:55;;;;;;;1.20;0.60;;;9.00;99.90;;;;;;5068982;28;20414;-70
2024/01/04 05:47:21;;;;;;;2.87;0.90;;;9.10;99.90;;;;;;5069139;28;20174;-69
2024/01/04 05:49:47;;;;;;;4.33;1.33;;;9.20;99.90;;;;;;5055187;28;20208;-70
2024/01/04 05:52:12;;;;;;;2.93;1.00;;;9.00;99.90;;;;;;5068326;28;20458;-70
2024/01/04 05:54:38;;;;;;;2.60;0.70;;;9.00;99.90;;;;;;5073478;28;20176;-70
2024/01/04 05:57:05;;;;;;;3.43;0.93;;;9.10;99.90;;;;;;5073555;28;20163;-71
2024/01/04 05:59:30;;;;;;;4.20;0.87;;;9.30;99.90;;;;;;5068887;28;20245;-71
2024/01/04 06:01:56;;;;;;;2.97;0.90;;;9.20;99.90;;;;;;5072810;28;20866;-70
2024/01/04 06:04:22;;;;;;;2.10;0.90;;;9.30;99.90;;;;;;5060169;28;20297;-71
2024/01/04 06:06:48;;;;;;;2.90;0.97;;;9.20;99.90;;;;;;5053877;28;20230;-70
2024/01/04 06:09:13;;;;;;;3.10;0.80;;;9.10;99.90;;;;;;5067492;28;20179;-71
2024/01/04 06:11:39;;;;;;;4.90;1.33;;;9.20;99.90;;;;;;5061177;28;20564;-71
2024/01/04 06:14:06;;;;;;;2.37;0.60;;;9.20;99.90;;;;;;5059856;28;20258;-70
2024/01/04 06:16:32;;;;;;;3.80;0.77;;;9.20;99.90;;;;;;5068588;28;20172;-70
2024/01/04 06:18:58;;;;;;;1.47;0.80;;;9.10;99.90;;;;;;5061327;28;20416;-70
2024/01/04 06:21:23;;;;;;;3.80;0.93;;;9.20;99.90;;;;;;5062974;28;20416;-70
2024/01/04 06:23:49;;;;;;;3.70;0.90;;;9.40;99.90;;;;;;5069339;28;20280;-70
2024/01/04 06:26:18;;;;;;;1.80;1.17;;;9.40;99.90;;;;;;5073591;28;20539;-71
2024/01/04 06:28:44;;;;;;;1.97;0.97;;;9.50;99.90;;;;;;5066969;28;20936;-71
2024/01/04 06:31:10;;;;;;;3.57;0.97;;;9.70;99.90;;;;;;5060157;28;20482;-70
2024/01/04 06:33:35;;;;;;;2.00;1.00;;;9.70;99.90;;;;;;5064024;28;20187;-70
2024/01/04 06:36:02;;;;;;;1.60;0.90;;;9.50;99.90;;;;;;5056386;28;20181;-71
2024/01/04 06:38:28;;;;;;;2.37;0.90;;;9.70;99.90;;;;;;5071347;28;20609;-70
2024/01/04 06:40:58;;;;;;;1.90;0.90;;;9.70;99.90;;;;;;5067542;28;20426;-70
2024/01/04 06:43:27;;;;;;;1.20;0.80;;;9.60;99.90;;;;;;5058557;28;20429;-70
2024/01/04 06:45:52;;;;;;;2.13;0.80;;;9.50;99.90;;;;;;5053328;28;20415;-70
2024/01/04 06:48:18;;;;;;;3.67;1.03;;;9.50;99.90;;;;;;5070762;28;20415;-69
2024/01/04 06:50:44;;;;;;;2.20;0.90;;;9.50;99.90;;;;;;5069507;28;20191;-69
2024/01/04 06:53:14;;;;;;;2.43;0.73;;;9.40;99.90;;;;;;5064604;28;20649;-70
2024/01/04 06:55:40;;;;;;;5.13;1.30;;;9.40;99.90;;;;;;5053116;28;20391;-69
2024/01/04 06:58:08;;;;;;;4.93;1.00;;;9.50;99.90;;;;;;5053448;28;20429;-69
2024/01/04 07:00:34;;;;;;;2.80;1.33;;;9.50;99.90;;;;;;5055791;28;20414;-69
2024/01/04 07:02:59;;;;;;;3.10;1.10;;;9.50;99.90;;;;;;5063370;28;20446;-70
2024/01/04 07:05:25;;;;;;;3.80;1.20;;;9.50;99.90;;;;;;5064283;28;20445;-69
2024/01/04 07:07:51;;;;;;;3.00;1.20;;;9.60;99.90;;;;;;5053104;28;20668;-69
2024/01/04 07:10:16;;;;;;;3.20;1.00;;;9.60;99.90;;;;;;5063863;28;20341;-71
2024/01/04 07:12:43;;;;;;;2.60;1.10;;;9.50;99.90;;;;;;5064061;28;20674;-71
2024/01/04 07:15:12;;;;;;;5.70;1.20;;;9.50;99.90;;;;;;5077157;28;20173;-71
2024/01/04 07:17:39;;;;;;;3.93;1.20;;;9.40;99.90;;;;;;5068063;28;20450;-70
2024/01/04 07:20:05;;;;;;;2.70;1.17;;;9.20;99.90;;;;;;5056997;28;20954;-70
2024/01/04 07:22:31;;;;;;;3.17;1.10;;;9.10;99.90;;;;;;5065178;28;20422;-70
2024/01/04 07:24:56;;;;;;;2.37;1.37;;;9.00;99.90;;;;;;5058102;28;20424;-69
2024/01/04 07:27:22;;;;;;;3.73;0.90;;;9.00;99.90;;;;;;5056953;28;20168;-69
2024/01/04 07:29:48;;;;;;;2.30;0.80;;;9.00;99.90;;;;;;5056602;28;20165;-69
2024/01/04 07:32:18;;;;;;;1.43;0.83;;;8.90;99.90;;;;;;5070836;28;20192;-69
2024/01/04 07:34:46;;;;;;;1.40;0.90;;;8.80;99.90;;;;;;5076602;28;20407;-68
2024/01/04 07:37:11;;;;;;;2.50;1.10;;;8.90;99.90;;;;;;5076488;28;20751;-68
2024/01/04 07:39:37;;;;;;;3.23;1.20;;;9.00;99.90;;;;;;5069737;28;20454;-68
2024/01/04 07:42:03;;;;;;;3.40;1.07;;;8.90;99.90;;;;;;5057931;28;20179;-70
2024/01/04 07:44:29;;;;;;;1.83;0.70;;;8.80;99.90;;;;;;5076354;28;20190;-68
2024/01/04 07:46:55;;;;;;;2.53;1.13;;;8.70;99.90;;;;;;5073233;28;20418;-68
2024/01/04 07:49:21;;;;;;;1.67;1.03;;;8.60;99.90;;;;;;5072075;28;20412;-68
2024/01/04 07:51:46;;;;;;;4.77;1.63;;;8.70;99.90;;;;;;5056116;28;20359;-68
2024/01/04 07:54:12;;;;;;;2.50;1.10;;;8.60;99.90;;;;;;5075108;28;20197;-69
2024/01/04 07:56:38;;;;;;;2.10;0.90;;;8.60;99.90;;;;;;5076095;28;20311;-69
2024/01/04 07:59:04;;;;;;;2.37;0.93;;;8.50;99.90;;;;;;5074595;28;20640;-69
2024/01/04 08:01:30;;;;;;;4.33;1.20;;;8.50;99.90;;;;;;5056304;28;20491;-69
2024/01/04 08:03:56;;;;;;;1.57;0.93;;;8.50;99.90;;;;;;5072738;28;20217;-69
2024/01/04 08:06:21;;;;;;;2.40;1.07;;;8.50;99.90;;;;;;5076140;28;20407;-67
2024/01/04 08:08:47;;;;;;;1.63;1.13;;;8.40;99.90;;;;;;5076581;28;20234;-68
2024/01/04 08:11:12;;;;;;;3.50;1.53;;;8.50;99.90;;;;;;5053990;28;20245;-69
2024/01/04 08:13:38;;;;;;;2.97;1.20;;;8.40;99.90;;;;;;5070094;28;20197;-68
2024/01/04 08:16:04;;;;;;;5.40;1.43;;;8.50;99.90;;;;;;5059486;28;20619;-69
2024/01/04 08:18:31;;;;;;;3.27;1.10;;;8.40;99.90;;;;;;5055793;28;20163;-69
2024/01/04 08:20:56;;;;;;;2.80;1.20;;;8.40;99.90;;;;;;5055989;28;20940;-68
2024/01/04 08:23:22;;;;;;;2.77;1.60;;;8.40;99.90;;;;;;5064681;28;20434;-69
2024/01/04 08:25:48;;;;;;;2.47;1.03;;;8.40;99.90;;;;;;5066251;28;20182;-69
2024/01/04 08:28:14;;;;;;;4.50;1.40;;;8.60;99.90;;;;;;5068582;28;20445;-69
2024/01/04 08:30:39;;;;;;;1.43;0.93;;;8.80;99.90;;;;;;5066631;28;20568;-71
2024/01/04 08:33:05;;;;;;;2.67;1.27;;;8.60;99.90;;;;;;5064514;28;20189;-73
2024/01/04 08:35:31;;;;;;;3.07;1.20;;;8.60;99.90;;;;;;5063055;28;20209;-72
2024/01/04 08:37:57;;;;;;;3.80;1.50;;;8.70;99.90;;;;;;5056318;28;20174;-71
2024/01/04 08:40:22;;;;;;;3.93;1.20;;;8.80;99.90;;;;;;5075165;28;20402;-71
2024/01/04 08:42:48;;;;;;;3.10;1.33;;;8.80;99.90;;;;;;5050299;28;20189;-70
2024/01/04 08:45:14;;;;;;;7.73;1.83;;;8.70;99.90;;;;;;5055101;28;20620;-71
2024/01/04 08:47:40;;;;;;;6.50;1.40;;;8.70;99.90;;;;;;5055186;28;20654;-71
2024/01/04 08:50:06;;;;;;;4.33;1.33;;;8.90;99.90;;;;;;5072740;28;20170;-71
2024/01/04 08:52:33;;;;;;;4.40;1.23;;;9.00;99.90;;;;;;5070673;28;20204;-71
2024/01/04 08:54:58;;;;;;;3.40;1.43;;;9.00;99.90;;;;;;5055154;28;20401;-71
2024/01/04 08:57:24;;;;;;;2.70;1.33;;;9.10;99.90;;;;;;5055105;28;20417;-69
2024/01/04 08:59:50;;;;;;;4.50;1.30;;;9.30;99.90;;;;;;5056097;28;20187;-69
2024/01/04 09:02:17;;;;;;;5.33;1.60;;;9.40;99.90;;;;;;5057664;28;20416;-71
2024/01/04 09:04:43;;;;;;;6.70;1.77;;;9.50;99.90;;;;;;5057633;28;20176;-70
2024/01/04 09:07:09;;;;;;;1.77;1.00;;;9.50;99.90;;;;;;5074631;28;20397;-72
2024/01/04 09:09:35;;;;;;;2.30;1.10;;;9.40;99.90;;;;;;5074749;28;20500;-72
2024/01/04 09:12:01;;;;;;;2.70;0.90;;;9.50;99.90;;;;;;5059324;28;20455;-73
2024/01/04 09:14:27;;;;;;;1.00;0.63;;;9.50;99.90;;;;;;5054562;28;20467;-73
2024/01/04 09:16:52;;;;;;;2.20;1.10;;;9.50;99.90;;;;;;5068523;28;20417;-70
2024/01/04 09:19:20;;;;;;;1.73;0.90;;;9.60;99.90;;;;;;5074734;28;20178;-71
2024/01/04 09:21:49;;;;;;;3.57;1.30;;;9.60;99.90;;;;;;5063896;28;20638;-71
2024/01/04 09:24:17;;;;;;;3.60;1.07;;;9.50;99.90;;;;;;5057921;28;20441;-70
2024/01/04 09:26:43;;;;;;;2.20;1.20;;;9.40;99.90;;;;;;5055117;28;20423;-71
2024/01/04 09:29:11;;;;;;;2.07;1.03;;;9.40;99.90;;;;;;5056841;28;20448;-71
2024/01/04 09:31:37;;;;;;;4.53;1.23;;;9.40;99.90;;;;;;5055502;28;20491;-71
2024/01/04 09:34:03;;;;;;;2.83;1.23;;;9.40;99.90;;;;;;5059245;28;20454;-74
2024/01/04 09:36:29;;;;;;;3.00;1.70;;;9.30;99.90;;;;;;5062758;28;20169;-72
2024/01/04 09:38:57;;;;;;;4.00;1.10;;;9.40;99.90;;;;;;5068143;28;20421;-70
2024/01/04 09:41:29;;;;;;;3.40;1.40;;;9.50;99.90;;;;;;5063311;28;20249;-70
2024/01/04 09:43:57;;;;;;;4.10;1.30;;;9.50;99.90;;;;;;5059251;28;20472;-71
2024/01/04 09:46:25;;;;;;;2.17;1.27;;;9.60;99.90;;;;;;5066206;28;20487;-71
2024/01/04 09:48:58;;;;;;;5.80;1.70;;;9.70;99.90;;;;;;5055846;28;20430;-71
2024/01/04 09:51:24;;;;;;;4.10;1.13;;;9.90;99.90;;;;;;5057488;28;20443;-72
2024/01/04 09:53:53;;;;;;;3.30;1.40;;;9.90;99.90;;;;;;5066674;28;20421;-71
2024/01/04 09:56:21;;;;;;;2.53;1.10;;;10.00;99.90;;;;;;5073944;28;20406;-71
2024/01/04 09:58:48;;;;;;;4.43;2.13;;;10.20;99.90;;;;;;5063065;28;20408;-70
2024/01/04 10:01:24;;;;;;;3.40;1.13;;;10.30;99.90;;;;;;5071777;28;20412;-68
2024/01/04 10:03:52;;;;;;;2.73;1.10;;;10.30;99.90;;;;;;5066105;28;20462;-71
2024/01/04 10:06:37;;;;;;;3.23;1.17;;;10.40;99.90;;;;;;5061789;28;20500;-70
2024/01/04 10:09:10;;;;;;;2.23;1.27;;;10.30;99.90;;;;;;5066068;28;20398;-69
2024/01/04 10:12:02;;;;;;;2.40;1.20;;;10.40;99.90;;;;;;5065261;28;20452;-69
2024/01/04 10:14:28;;;;;;;2.07;1.37;;;10.50;99.90;;;;;;5053806;28;20468;-69
2024/01/04 10:16:56;;;;;;;3.53;1.33;;;10.50;99.90;;;;;;5061241;28;20428;-71
2024/01/04 10:19:23;;;;;;;2.63;1.17;;;10.40;99.90;;;;;;5072803;28;20421;-71
2024/01/04 10:21:49;;;;;;;3.80;1.63;;;10.40;99.90;;;;;;5072969;28;20411;-75
2024/01/04 10:24:22;;;;;;;3.27;1.27;;;10.50;99.90;;;;;;5071036;28;20427;-74
2024/01/04 10:26:59;;;;;;;3.73;1.10;;;10.60;99.90;;;;;;5072561;28;20441;-68
2024/01/04 10:29:26;;;;;;;1.80;1.27;;;10.60;99.90;;;;;;5070968;28;20400;-68
2024/01/04 10:31:59;;;;;;;2.03;1.20;;;10.40;99.90;;;;;;5068308;28;20459;-68
2024/01/04 10:34:26;;;;;;;3.57;1.67;;;10.30;99.90;;;;;;5070384;28;20458;-72
2024/01/04 10:36:52;;;;;;;2.50;1.27;;;10.10;99.90;;;;;;5073389;28;20461;-70
2024/01/04 10:39:20;;;;;;;4.97;1.70;;;10.10;99.90;;;;;;5072546;28;20414;-71
2024/01/04 10:42:02;;;;;;;3.77;1.70;;;9.90;99.90;;;;;;5061674;28;20981;-70
2024/01/04 10:44:29;;;;;;;4.23;1.40;;;9.90;99.90;;;;;;5070915;28;20819;-69
2024/01/04 10:46:59;;;;;;;4.07;1.80;;;9.90;99.90;;;;;;5072074;28;20502;-69
2024/01/04 10:49:25;;;;;;;3.17;1.30;;;9.80;99.90;;;;;;5071687;28;20450;-71
2024/01/04 10:51:57;;;;;;;3.53;1.13;;;9.80;99.90;;;;;;5070491;28;20457;-70
2024/01/04 10:54:34;;;;;;;3.93;1.70;;;9.70;99.90;;;;;;5068847;28;20453;-69
2024/01/04 10:57:02;;;;;;;1.90;0.87;;;9.50;99.90;;;;;;5073467;28;20414;-69
2024/01/04 10:59:32;;;;;;;1.53;1.00;;;9.50;99.90;;;;;;5072688;28;20425;-68
2024/01/04 11:01:58;;;;;;;1.93;0.90;;;9.50;99.90;;;;;;5071997;28;20464;-70
2024/01/04 11:04:25;;;;;;;1.40;0.80;;;9.30;99.90;;;;;;5069876;28;20882;-69
2024/01/04 11:06:52;;;;;;;2.30;1.13;;;9.40;99.90;;;;;;5068499;28;20420;-69
2024/01/04 11:09:22;;;;;;;1.40;0.90;;;9.60;99.90;;;;;;5064427;28;20420;-70
2024/01/04 11:11:52;;;;;;;2.27;0.83;;;10.10;99.90;;;;;;5059803;28;20456;-71
2024/01/04 11:14:21;;;;;;;2.20;1.00;;;10.30;99.90;;;;;;5069955;28;20787;-69
2024/01/04 11:16:59;;;;;;;3.40;0.90;;;10.50;99.90;;;;;;5072712;28;20470;-68
2024/01/04 11:19:47;;;;;;;1.23;0.80;;;10.40;99.90;;;;;;5070764;28;20501;-68
2024/01/04 11:22:32;;;;;;;3.40;1.20;;;10.30;99.90;;;;;;5068988;28;20957;-69
2024/01/04 11:25:31;;;;;;;2.30;0.90;;;10.20;99.90;;;;;;5061434;28;20941;-69
2024/01/04 11:27:58;;;;;;;2.00;1.10;;;10.70;99.90;;;;;;5070048;28;20420;-69
2024/01/04 11:30:24;;;;;;;2.10;1.40;;;11.40;99.90;;;;;;5070129;28;20473;-69
2024/01/04 11:32:50;;;;;;;1.73;0.80;;;12.00;99.90;;;;;;5069573;28;20471;-69
2024/01/04 11:35:16;;;;;;;1.33;1.00;;;12.40;99.90;;;;;;5071699;28;20420;-69
2024/01/04 11:37:49;;;;;;;4.20;1.57;;;13.30;99.90;;;;;;5072284;28;20181;-69
2024/01/04 11:40:25;;;;;;;2.50;1.33;;;13.90;99.90;;;;;;5072114;28;20880;-70
2024/01/04 11:42:51;;;;;;;3.67;1.70;;;13.50;99.90;;;;;;5059761;28;20567;-70
2024/01/04 11:45:18;;;;;;;4.90;1.50;;;12.90;99.90;;;;;;5072483;28;20443;-71
2024/01/04 11:47:45;;;;;;;2.80;1.40;;;12.70;99.90;;;;;;5066414;28;20336;-70
2024/01/04 11:50:22;;;;;;;3.40;1.43;;;12.40;99.90;;;;;;5072070;28;20420;-71
2024/01/04 11:53:02;;;;;;;2.67;1.50;;;11.80;99.90;;;;;;5050931;28;20899;-72
2024/01/04 11:55:29;;;;;;;4.23;1.20;;;11.30;99.90;;;;;;5053667;28;20420;-71
2024/01/04 11:58:10;;;;;;;3.57;1.33;;;10.90;99.90;;;;;;5072740;28;20416;-69
2024/01/04 12:00:37;;;;;;;1.50;0.90;;;10.50;99.90;;;;;;5076051;28;20443;-69
2024/01/04 12:03:14;;;;;;;1.77;0.97;;;10.30;99.90;;;;;;5067342;28;20512;-70
2024/01/04 12:05:59;;;;;;;2.50;1.00;;;10.30;99.90;;;;;;5076002;28;20483;-69
2024/01/04 12:08:29;;;;;;;2.30;1.23;;;11.40;99.90;;;;;;5073686;28;20967;-71
2024/01/04 12:11:00;;;;;;;4.60;2.17;;;12.10;99.90;;;;;;5076358;28;20475;-69
2024/01/04 12:13:26;;;;;;;5.07;1.33;;;11.70;99.90;;;;;;5066785;28;20432;-70
2024/01/04 12:15:52;;;;;;;2.27;1.20;;;11.10;99.90;;;;;;5068424;28;20412;-70
2024/01/04 12:18:18;;;;;;;2.63;0.97;;;11.60;99.90;;;;;;5063147;28;20181;-71
2024/01/04 12:20:44;;;;;;;1.00;0.90;;;12.80;99.90;;;;;;5069411;28;20171;-69
2024/01/04 12:23:10;;;;;;;2.63;1.40;;;13.30;99.90;;;;;;5072645;28;20432;-69
2024/01/04 12:25:40;;;;;;;4.03;1.43;;;13.90;99.90;;;;;;5075626;28;20408;-68
2024/01/04 12:28:07;;;;;;;3.80;1.53;;;13.60;99.90;;;;;;5075556;28;20497;-70
2024/01/04 12:30:35;;;;;;;3.70;1.50;;;13.40;99.90;;;;;;5075869;28;20529;-72
2024/01/04 12:33:01;;;;;;;6.77;1.67;;;13.10;99.90;;;;;;5065799;28;20434;-72
2024/01/04 12:35:27;;;;;;;2.83;1.33;;;13.30;99.90;;;;;;5075626;28;20912;-72
2024/01/04 12:38:03;;;;;;;2.50;1.40;;;14.10;99.90;;;;;;5076269;28;20490;-71
2024/01/04 12:40:41;;;;;;;2.30;1.27;;;14.00;99.90;;;;;;5075688;28;20388;-72
2024/01/04 12:43:12;;;;;;;4.10;1.37;;;13.00;99.90;;;;;;5065757;28;20446;-70
2024/01/04 12:45:38;;;;;;;3.43;1.60;;;12.10;99.90;;;;;;5075770;28;20408;-71
2024/01/04 12:48:08;;;;;;;5.57;1.53;;;11.70;99.90;;;;;;5075436;28;20464;-71
2024/01/04 12:50:35;;;;;;;4.00;1.60;;;11.50;99.90;;;;;;5075755;28;20178;-71
2024/01/04 12:53:01;;;;;;;4.93;1.57;;;11.30;99.90;;;;;;5067345;28;20437;-70
2024/01/04 12:55:28;;;;;;;3.93;1.37;;;11.30;99.90;;;;;;5055075;28;20416;-71